createdAt,value
2023-02-11T00:00:06.609Z,86.31
2023-02-11T00:01:06.606Z,86.31
2023-02-11T00:02:06.689Z,86.31
2023-02-11T00:03:06.587Z,86.31
2023-02-11T00:04:06.589Z,86.52
2023-02-11T00:05:06.550Z,86.41
2023-02-11T00:06:06.992Z,86.21
2023-02-11T00:07:07.453Z,85.99
2023-02-11T00:08:06.527Z,86.21
2023-02-11T00:09:06.605Z,86.41
2023-02-11T00:10:06.686Z,86.73
2023-02-11T00:11:06.832Z,86.84
2023-02-11T00:12:06.494Z,86.88
2023-02-11T00:13:06.465Z,86.99
2023-02-11T00:14:06.501Z,87.09
2023-02-11T00:15:06.446Z,87.19
2023-02-11T00:16:06.449Z,87.19
2023-02-11T00:17:06.423Z,87.41
2023-02-11T00:18:06.412Z,87.41
2023-02-11T00:19:06.395Z,87.09
2023-02-11T00:20:08.214Z,87.30
2023-02-11T00:21:06.408Z,87.73
2023-02-11T00:22:06.354Z,87.73
2023-02-11T00:23:06.496Z,87.94
2023-02-11T00:24:06.332Z,87.83
2023-02-11T00:25:06.316Z,87.51
2023-02-11T00:26:06.336Z,86.88
2023-02-11T00:27:06.304Z,86.66
2023-02-11T00:28:06.397Z,86.77
2023-02-11T00:29:06.320Z,86.99
2023-02-11T00:30:06.311Z,87.09
2023-02-11T00:31:07.565Z,87.19
2023-02-11T00:32:06.509Z,87.41
2023-02-11T00:33:07.222Z,87.51
2023-02-11T00:34:06.758Z,87.41
2023-02-11T00:35:06.297Z,87.41
2023-02-11T00:36:07.697Z,87.41
2023-02-11T00:37:06.213Z,87.09
2023-02-11T00:38:06.211Z,87.19
2023-02-11T00:39:06.223Z,87.09
2023-02-11T00:40:06.871Z,87.30
2023-02-11T00:41:06.246Z,87.51
2023-02-11T00:42:06.328Z,87.62
2023-02-11T00:43:06.142Z,87.62
2023-02-11T00:44:06.118Z,87.62
2023-02-11T00:45:06.090Z,87.73
2023-02-11T00:46:06.198Z,88.15
2023-02-11T00:47:06.093Z,88.36
2023-02-11T00:48:06.075Z,88.36
2023-02-11T00:49:06.092Z,88.26
2023-02-11T00:50:06.041Z,88.26
2023-02-11T00:51:06.049Z,88.26
2023-02-11T00:52:06.144Z,87.94
2023-02-11T00:53:06.131Z,87.69
2023-02-11T00:54:06.035Z,87.26
2023-02-11T00:55:06.000Z,87.26
2023-02-11T00:56:05.976Z,87.05
2023-02-11T00:57:06.009Z,86.84
2023-02-11T00:58:07.405Z,86.94
2023-02-11T00:59:05.977Z,86.91
2023-02-11T01:00:05.936Z,86.91
2023-02-11T01:01:05.990Z,86.80
2023-02-11T01:02:05.919Z,86.59
2023-02-11T01:03:05.919Z,86.38
2023-02-11T01:04:05.921Z,86.27
2023-02-11T01:05:05.973Z,86.38
2023-02-11T01:06:05.872Z,86.48
2023-02-11T01:07:05.890Z,86.48
2023-02-11T01:08:05.906Z,86.80
2023-02-11T01:09:05.851Z,86.91
2023-02-11T01:10:06.542Z,86.80
2023-02-11T01:11:05.842Z,86.06
2023-02-11T01:12:05.812Z,86.38
2023-02-11T01:13:05.865Z,86.38
2023-02-11T01:14:05.845Z,86.27
2023-02-11T01:15:05.819Z,86.38
2023-02-11T01:16:05.810Z,86.44
2023-02-11T01:17:06.101Z,86.66
2023-02-11T01:18:05.832Z,86.66
2023-02-11T01:19:05.908Z,86.87
2023-02-11T01:20:05.779Z,87.08
2023-02-11T01:21:05.756Z,87.18
2023-02-11T01:22:05.728Z,87.08
2023-02-11T01:23:05.743Z,86.87
2023-02-11T01:24:05.842Z,86.98
2023-02-11T01:25:06.091Z,86.55
2023-02-11T01:26:05.874Z,86.13
2023-02-11T01:27:05.649Z,84.86
2023-02-11T01:28:05.809Z,84.44
2023-02-11T01:29:06.581Z,84.01
2023-02-11T01:30:06.119Z,83.69
2023-02-11T01:31:05.925Z,83.27
2023-02-11T01:32:05.883Z,82.74
2023-02-11T01:33:05.851Z,82.21
2023-02-11T01:34:05.579Z,81.47
2023-02-11T01:35:05.894Z,81.05
2023-02-11T01:36:05.870Z,80.73
2023-02-11T01:37:05.554Z,80.62
2023-02-11T01:38:05.562Z,80.52
2023-02-11T01:39:05.528Z,80.20
2023-02-11T01:40:06.109Z,79.78
2023-02-11T01:41:05.726Z,79.82
2023-02-11T01:42:05.511Z,79.71
2023-02-11T01:43:18.065Z,79.71
2023-02-11T01:44:05.496Z,79.82
2023-02-11T01:45:05.527Z,80.02
2023-02-11T01:46:05.691Z,80.34
2023-02-11T01:47:05.608Z,80.55
2023-02-11T01:48:05.509Z,80.55
2023-02-11T01:49:05.679Z,80.87
2023-02-11T01:50:05.681Z,81.09
2023-02-11T01:51:05.556Z,81.30
2023-02-11T01:52:05.599Z,81.62
2023-02-11T01:53:05.607Z,81.82
2023-02-11T01:54:05.361Z,81.82
2023-02-11T01:55:06.397Z,82.14
2023-02-11T01:56:05.607Z,82.14
2023-02-11T01:57:05.449Z,82.25
2023-02-11T01:58:05.370Z,82.35
2023-02-11T01:59:05.335Z,82.46
2023-02-11T02:00:05.306Z,82.57
2023-02-11T02:01:05.298Z,82.78
2023-02-11T02:02:05.325Z,83.45
2023-02-11T02:03:05.290Z,83.77
2023-02-11T02:04:05.250Z,83.87
2023-02-11T02:05:05.270Z,83.87
2023-02-11T02:06:05.243Z,84.19
2023-02-11T02:07:05.360Z,84.51
2023-02-11T02:08:05.267Z,84.93
2023-02-11T02:09:05.203Z,85.11
2023-02-11T02:10:05.207Z,85.32
2023-02-11T02:11:05.194Z,85.53
2023-02-11T02:12:05.182Z,85.53
2023-02-11T02:13:05.197Z,85.53
2023-02-11T02:14:05.436Z,85.42
2023-02-11T02:15:05.647Z,85.64
2023-02-11T02:16:06.694Z,85.85
2023-02-11T02:17:05.474Z,85.85
2023-02-11T02:18:05.212Z,86.06
2023-02-11T02:19:05.110Z,86.27
2023-02-11T02:20:05.329Z,86.41
2023-02-11T02:21:05.396Z,86.21
2023-02-11T02:22:05.111Z,86.31
2023-02-11T02:23:05.103Z,86.52
2023-02-11T02:24:05.064Z,86.73
2023-02-11T02:25:05.044Z,86.63
2023-02-11T02:26:05.138Z,86.84
2023-02-11T02:27:07.155Z,86.52
2023-02-11T02:28:05.096Z,86.41
2023-02-11T02:29:05.016Z,86.73
2023-02-11T02:30:04.951Z,86.84
2023-02-11T02:31:05.105Z,86.94
2023-02-11T02:32:04.952Z,86.84
2023-02-11T02:33:20.570Z,86.84
2023-02-11T02:34:04.966Z,86.73
2023-02-11T02:35:04.962Z,86.63
2023-02-11T02:36:04.928Z,86.52
2023-02-11T02:37:04.874Z,86.94
2023-02-11T02:38:05.065Z,87.16
2023-02-11T02:39:05.062Z,87.16
2023-02-11T02:40:04.966Z,87.16
2023-02-11T02:41:05.023Z,87.26
2023-02-11T02:42:05.274Z,87.73
2023-02-11T02:43:04.924Z,88.11
2023-02-11T02:44:04.979Z,88.57
2023-02-11T02:45:04.877Z,88.79
2023-02-11T02:46:04.795Z,89.11
2023-02-11T02:47:04.821Z,89.11
2023-02-11T02:48:04.780Z,89.11
2023-02-11T02:49:04.742Z,89.21
2023-02-11T02:50:04.754Z,89.31
2023-02-11T02:51:04.753Z,89.42
2023-02-11T02:52:04.755Z,89.42
2023-02-11T02:53:04.719Z,89.53
2023-02-11T02:54:04.707Z,89.42
2023-02-11T02:55:04.703Z,89.53
2023-02-11T02:56:04.708Z,89.64
2023-02-11T02:57:04.850Z,89.84
2023-02-11T02:58:04.708Z,89.95
2023-02-11T02:59:04.646Z,90.06
2023-02-11T03:00:04.637Z,90.06
2023-02-11T03:01:04.684Z,89.84
2023-02-11T03:02:04.672Z,89.84
2023-02-11T03:03:04.868Z,89.89
2023-02-11T03:04:04.778Z,89.67
2023-02-11T03:05:04.935Z,89.57
2023-02-11T03:06:04.596Z,89.57
2023-02-11T03:07:04.688Z,89.78
2023-02-11T03:08:04.758Z,89.99
2023-02-11T03:09:04.640Z,89.99
2023-02-11T03:10:04.550Z,90.20
2023-02-11T03:11:04.560Z,90.31
2023-02-11T03:12:04.507Z,90.25
2023-02-11T03:13:04.549Z,90.35
2023-02-11T03:14:04.503Z,90.45
2023-02-11T03:15:04.496Z,90.45
2023-02-11T03:16:04.520Z,90.78
2023-02-11T03:17:04.465Z,90.88
2023-02-11T03:18:04.440Z,90.88
2023-02-11T03:19:04.446Z,90.99
2023-02-11T03:20:04.457Z,90.99
2023-02-11T03:21:04.498Z,91.05
2023-02-11T03:22:04.461Z,90.95
2023-02-11T03:23:04.414Z,90.73
2023-02-11T03:24:04.404Z,90.52
2023-02-11T03:25:04.476Z,90.31
2023-02-11T03:26:04.346Z,90.20
2023-02-11T03:27:04.394Z,90.31
2023-02-11T03:28:04.624Z,90.10
2023-02-11T03:29:04.318Z,90.10
2023-02-11T03:30:04.368Z,90.10
2023-02-11T03:31:04.579Z,90.10
2023-02-11T03:32:04.591Z,90.10
2023-02-11T03:33:04.318Z,90.20
2023-02-11T03:34:04.288Z,90.20
2023-02-11T03:35:04.271Z,90.31
2023-02-11T03:36:04.278Z,90.42
2023-02-11T03:37:04.310Z,90.52
2023-02-11T03:38:04.254Z,90.84
2023-02-11T03:39:04.247Z,90.73
2023-02-11T03:40:04.224Z,90.73
2023-02-11T03:41:04.211Z,90.95
2023-02-11T03:42:04.225Z,91.27
2023-02-11T03:43:04.500Z,91.27
2023-02-11T03:44:04.330Z,91.16
2023-02-11T03:45:04.203Z,91.12
2023-02-11T03:46:04.234Z,91.33
2023-02-11T03:47:04.146Z,91.22
2023-02-11T03:48:04.976Z,91.01
2023-02-11T03:49:04.185Z,90.65
2023-02-11T03:50:04.112Z,90.44
2023-02-11T03:51:04.085Z,90.44
2023-02-11T03:52:04.084Z,90.33
2023-02-11T03:53:04.123Z,90.23
2023-02-11T03:54:04.071Z,90.01
2023-02-11T03:55:04.095Z,90.01
2023-02-11T03:56:04.070Z,90.06
2023-02-11T03:57:04.057Z,90.06
2023-02-11T03:58:04.306Z,90.37
2023-02-11T03:59:04.287Z,90.27
2023-02-11T04:00:04.229Z,90.06
2023-02-11T04:01:04.415Z,90.16
2023-02-11T04:02:03.998Z,90.06
2023-02-11T04:03:04.047Z,90.16
2023-02-11T04:04:03.938Z,90.16
2023-02-11T04:05:03.948Z,90.37
2023-02-11T04:06:03.962Z,90.48
2023-02-11T04:07:03.921Z,90.37
2023-02-11T04:08:03.894Z,90.37
2023-02-11T04:09:03.888Z,90.27
2023-02-11T04:10:03.896Z,90.27
2023-02-11T04:11:03.870Z,90.48
2023-02-11T04:12:03.884Z,90.48
2023-02-11T04:13:03.900Z,90.48
2023-02-11T04:14:03.857Z,90.48
2023-02-11T04:15:03.869Z,90.52
2023-02-11T04:16:03.896Z,90.84
2023-02-11T04:17:03.802Z,90.84
2023-02-11T04:18:03.808Z,90.73
2023-02-11T04:19:03.819Z,90.84
2023-02-11T04:20:03.834Z,90.73
2023-02-11T04:21:03.782Z,90.95
2023-02-11T04:22:03.761Z,90.84
2023-02-11T04:23:03.790Z,90.95
2023-02-11T04:24:03.732Z,91.05
2023-02-11T04:25:03.738Z,91.16
2023-02-11T04:26:03.733Z,91.37
2023-02-11T04:27:03.708Z,91.37
2023-02-11T04:28:03.786Z,91.37
2023-02-11T04:29:03.676Z,91.16
2023-02-11T04:30:03.688Z,91.37
2023-02-11T04:31:03.777Z,91.37
2023-02-11T04:32:03.706Z,91.41
2023-02-11T04:33:03.685Z,91.52
2023-02-11T04:34:03.631Z,91.41
2023-02-11T04:35:03.634Z,91.41
2023-02-11T04:36:03.601Z,91.73
2023-02-11T04:37:03.590Z,91.94
2023-02-11T04:38:03.627Z,92.05
2023-02-11T04:39:03.598Z,91.94
2023-02-11T04:40:03.548Z,92.15
2023-02-11T04:41:03.538Z,91.94
2023-02-11T04:42:03.570Z,91.94
2023-02-11T04:43:03.520Z,92.15
2023-02-11T04:45:53.424Z,92.09
2023-02-11T04:46:53.287Z,92.09
2023-02-11T04:47:53.304Z,92.30
2023-02-11T04:48:53.264Z,92.30
2023-02-11T04:49:53.245Z,92.30
2023-02-11T04:50:53.231Z,92.51
2023-02-11T04:51:53.271Z,92.51
2023-02-11T04:52:53.229Z,92.62
2023-02-11T04:53:53.222Z,92.62
2023-02-11T04:54:53.222Z,92.45
2023-02-11T04:55:53.467Z,92.55
2023-02-11T04:56:53.180Z,92.55
2023-02-11T04:57:53.222Z,92.77
2023-02-11T04:58:53.194Z,92.87
2023-02-11T04:59:53.203Z,93.08
2023-02-11T05:00:53.159Z,93.08
2023-02-11T05:01:53.122Z,92.87
2023-02-11T05:02:53.150Z,92.70
2023-02-11T05:03:53.351Z,92.70
2023-02-11T05:04:53.091Z,92.81
2023-02-11T05:05:53.377Z,93.23
2023-02-11T05:06:53.171Z,93.66
2023-02-11T05:07:53.057Z,93.98
2023-02-11T05:08:53.049Z,93.98
2023-02-11T05:09:53.068Z,93.80
2023-02-11T05:10:53.057Z,93.80
2023-02-11T05:11:53.011Z,94.02
2023-02-11T05:12:55.716Z,94.34
2023-02-11T05:13:53.018Z,94.65
2023-02-11T05:14:53.030Z,94.98
2023-02-11T05:15:53.208Z,95.25
2023-02-11T05:16:53.039Z,95.25
2023-02-11T05:17:52.976Z,95.15
2023-02-11T05:18:52.935Z,94.72
2023-02-11T05:19:52.966Z,94.29
2023-02-11T05:20:52.928Z,93.91
2023-02-11T05:22:02.190Z,94.34
2023-02-11T05:22:52.944Z,94.34
2023-02-11T05:23:52.883Z,94.34
2023-02-11T05:24:52.879Z,94.76
2023-02-11T05:25:53.044Z,94.87
2023-02-11T05:26:52.841Z,94.98
2023-02-11T05:27:52.842Z,94.76
2023-02-11T05:28:52.865Z,94.76
2023-02-11T05:29:52.808Z,94.65
2023-02-11T05:30:52.979Z,94.76
2023-02-11T05:31:52.788Z,94.87
2023-02-11T05:32:52.787Z,95.08
2023-02-11T05:33:52.782Z,95.08
2023-02-11T05:34:52.798Z,95.29
2023-02-11T05:35:52.952Z,95.29
2023-02-11T05:36:52.753Z,95.29
2023-02-11T05:37:52.734Z,95.19
2023-02-11T05:38:52.750Z,95.23
2023-02-11T05:39:52.740Z,95.44
2023-02-11T05:40:52.707Z,95.34
2023-02-11T05:41:52.783Z,95.12
2023-02-11T05:42:52.685Z,95.02
2023-02-11T05:43:52.672Z,95.23
2023-02-11T05:44:52.645Z,95.48
2023-02-11T05:45:53.033Z,95.59
2023-02-11T05:46:52.619Z,95.81
2023-02-11T05:47:52.643Z,95.91
2023-02-11T05:48:52.633Z,95.81
2023-02-11T05:49:52.646Z,95.91
2023-02-11T05:50:52.588Z,96.12
2023-02-11T05:51:52.658Z,96.55
2023-02-11T05:52:52.586Z,96.66
2023-02-11T05:53:52.607Z,96.44
2023-02-11T05:54:52.585Z,96.12
2023-02-11T05:55:52.925Z,95.91
2023-02-11T05:56:52.551Z,95.95
2023-02-11T05:57:52.546Z,95.95
2023-02-11T05:58:52.531Z,95.85
2023-02-11T05:59:52.506Z,95.64
2023-02-11T06:00:52.532Z,95.57
2023-02-11T06:01:52.482Z,95.57
2023-02-11T06:02:52.478Z,95.68
2023-02-11T06:03:52.516Z,95.68
2023-02-11T06:04:52.449Z,95.72
2023-02-11T06:05:52.743Z,96.04
2023-02-11T06:06:52.433Z,96.15
2023-02-11T06:07:52.440Z,96.47
2023-02-11T06:08:52.392Z,96.57
2023-02-11T06:09:52.420Z,96.36
2023-02-11T06:10:52.372Z,96.30
2023-02-11T06:11:52.376Z,96.19
2023-02-11T06:12:52.374Z,96.30
2023-02-11T06:13:52.360Z,96.41
2023-02-11T06:14:52.338Z,96.98
2023-02-11T06:15:52.783Z,96.98
2023-02-11T06:16:52.340Z,96.98
2023-02-11T06:17:52.311Z,96.98
2023-02-11T06:18:52.318Z,96.87
2023-02-11T06:19:52.287Z,96.81
2023-02-11T06:20:52.279Z,96.70
2023-02-11T06:21:52.287Z,96.70
2023-02-11T06:22:52.261Z,97.13
2023-02-11T06:23:52.241Z,97.77
2023-02-11T06:25:01.339Z,98.25
2023-02-11T06:25:52.567Z,98.58
2023-02-11T06:26:52.222Z,98.68
2023-02-11T06:27:52.220Z,99.01
2023-02-11T06:28:52.198Z,99.28
2023-02-11T06:29:52.193Z,99.28
2023-02-11T06:30:52.222Z,99.38
2023-02-11T06:31:52.271Z,99.34
2023-02-11T06:32:52.220Z,99.44
2023-02-11T06:33:52.143Z,99.34
2023-02-11T06:34:52.150Z,98.91
2023-02-11T06:35:52.479Z,98.49
2023-02-11T06:36:52.158Z,98.17
2023-02-11T06:37:52.100Z,98.07
2023-02-11T06:38:52.082Z,98.17
2023-02-11T06:39:52.079Z,98.38
2023-02-11T06:40:52.065Z,98.49
2023-02-11T06:41:52.057Z,98.38
2023-02-11T06:42:52.062Z,98.28
2023-02-11T06:43:52.039Z,98.28
2023-02-11T06:44:52.030Z,98.28
2023-02-11T06:45:52.308Z,98.38
2023-02-11T06:46:52.046Z,98.28
2023-02-11T06:47:52.014Z,98.38
2023-02-11T06:48:51.983Z,98.28
2023-02-11T06:49:51.979Z,98.28
2023-02-11T06:50:51.969Z,98.70
2023-02-11T06:51:51.956Z,98.81
2023-02-11T06:52:51.974Z,98.49
2023-02-11T06:53:51.932Z,98.17
2023-02-11T06:54:51.915Z,97.96
2023-02-11T06:55:52.217Z,97.85
2023-02-11T06:56:51.909Z,97.85
2023-02-11T06:57:51.892Z,97.85
2023-02-11T06:58:51.900Z,98.07
2023-02-11T06:59:51.869Z,98.07
2023-02-11T07:00:51.844Z,97.96
2023-02-11T07:01:51.951Z,97.96
2023-02-11T07:02:51.885Z,97.96
2023-02-11T07:03:51.853Z,97.96
2023-02-11T07:04:51.810Z,97.85
2023-02-11T07:05:52.165Z,98.17
2023-02-11T07:06:51.806Z,98.28
2023-02-11T07:07:51.803Z,98.07
2023-02-11T07:08:51.786Z,97.74
2023-02-11T07:09:51.780Z,97.64
2023-02-11T07:10:51.756Z,97.74
2023-02-11T07:11:51.763Z,97.85
2023-02-11T07:12:51.722Z,97.53
2023-02-11T07:13:51.718Z,97.47
2023-02-11T07:14:51.750Z,97.74
2023-02-11T07:15:52.098Z,97.89
2023-02-11T07:16:51.719Z,97.68
2023-02-11T07:17:51.668Z,96.94
2023-02-11T07:18:51.655Z,96.45
2023-02-11T07:19:51.702Z,96.02
2023-02-11T07:20:51.669Z,95.74
2023-02-11T07:21:51.634Z,95.85
2023-02-11T07:22:51.629Z,96.00
2023-02-11T07:23:51.634Z,96.00
2023-02-11T07:24:51.624Z,96.00
2023-02-11T07:25:51.891Z,96.00
2023-02-11T07:26:51.600Z,96.00
2023-02-11T07:27:51.581Z,95.89
2023-02-11T07:28:51.557Z,95.78
2023-02-11T07:29:51.556Z,95.83
2023-02-11T07:30:51.590Z,96.25
2023-02-11T07:31:51.661Z,96.58
2023-02-11T07:32:51.530Z,96.89
2023-02-11T07:33:51.506Z,97.11
2023-02-11T07:34:51.670Z,97.28
2023-02-11T07:35:51.818Z,97.60
2023-02-11T07:36:51.573Z,98.02
2023-02-11T07:37:51.472Z,98.62
2023-02-11T07:38:51.449Z,98.94
2023-02-11T07:39:51.446Z,99.22
2023-02-11T07:40:51.447Z,99.11
2023-02-11T07:41:51.421Z,98.79
2023-02-11T07:42:51.421Z,98.25
2023-02-11T07:43:51.410Z,97.94
2023-02-11T07:44:51.391Z,97.94
2023-02-11T07:45:51.680Z,97.89
2023-02-11T07:46:51.478Z,97.89
2023-02-11T07:47:51.360Z,97.89
2023-02-11T07:48:51.417Z,97.89
2023-02-11T07:49:51.856Z,97.78
2023-02-11T07:50:51.348Z,97.68
2023-02-11T07:51:51.423Z,97.53
2023-02-11T07:52:51.343Z,97.32
2023-02-11T07:53:51.361Z,97.32
2023-02-11T07:54:51.292Z,97.53
2023-02-11T07:55:51.697Z,97.32
2023-02-11T07:56:51.277Z,97.32
2023-02-11T07:57:51.253Z,97.32
2023-02-11T07:58:51.245Z,97.17
2023-02-11T07:59:51.281Z,97.17
2023-02-11T08:00:51.246Z,97.17
2023-02-11T08:01:51.256Z,96.95
2023-02-11T08:02:51.213Z,96.95
2023-02-11T08:03:51.217Z,96.74
2023-02-11T08:04:51.279Z,96.53
2023-02-11T08:05:51.496Z,96.42
2023-02-11T08:06:51.156Z,96.27
2023-02-11T08:07:51.159Z,96.06
2023-02-11T08:08:51.167Z,95.85
2023-02-11T08:09:51.120Z,95.95
2023-02-11T08:10:51.448Z,95.95
2023-02-11T08:11:51.106Z,95.85
2023-02-11T08:12:51.118Z,95.74
2023-02-11T08:13:51.107Z,95.32
2023-02-11T08:14:51.090Z,94.89
2023-02-11T08:15:51.520Z,94.36
2023-02-11T08:16:51.146Z,94.46
2023-02-11T08:17:51.045Z,94.57
2023-02-11T08:18:51.036Z,94.68
2023-02-11T08:19:51.015Z,94.89
2023-02-11T08:20:51.337Z,95.00
2023-02-11T08:21:51.033Z,95.38
2023-02-11T08:22:50.986Z,95.70
2023-02-11T08:23:50.978Z,95.76
2023-02-11T08:24:52.441Z,95.55
2023-02-11T08:25:50.977Z,95.29
2023-02-11T08:26:50.956Z,95.40
2023-02-11T08:27:50.963Z,95.36
2023-02-11T08:28:50.958Z,94.68
2023-02-11T08:29:50.911Z,94.15
2023-02-11T08:30:51.189Z,93.47
2023-02-11T08:31:50.962Z,93.36
2023-02-11T08:32:50.907Z,92.83
2023-02-11T08:33:50.878Z,92.94
2023-02-11T08:34:50.856Z,92.79
2023-02-11T08:35:50.852Z,92.58
2023-02-11T08:36:50.861Z,92.36
2023-02-11T08:37:50.829Z,92.26
2023-02-11T08:38:50.851Z,91.94
2023-02-11T08:39:50.807Z,91.83
2023-02-11T08:40:50.991Z,91.73
2023-02-11T08:41:50.858Z,91.69
2023-02-11T08:42:50.783Z,91.58
2023-02-11T08:43:50.761Z,91.37
2023-02-11T08:44:50.762Z,91.37
2023-02-11T08:45:51.055Z,91.37
2023-02-11T08:46:50.762Z,91.22
2023-02-11T08:47:50.735Z,90.91
2023-02-11T08:48:50.728Z,90.37
2023-02-11T08:49:50.703Z,89.95
2023-02-11T08:50:50.693Z,90.69
2023-02-11T08:51:50.678Z,90.37
2023-02-11T08:52:50.674Z,90.55
2023-02-11T08:53:50.658Z,90.12
2023-02-11T08:54:50.644Z,90.12
2023-02-11T08:55:50.943Z,89.87
2023-02-11T08:56:50.617Z,89.55
2023-02-11T08:57:50.686Z,89.23
2023-02-11T08:58:50.598Z,89.03
2023-02-11T08:59:50.586Z,88.92
2023-02-11T09:00:51.105Z,88.45
2023-02-11T09:01:50.638Z,88.60
2023-02-11T09:02:50.563Z,88.60
2023-02-11T09:03:50.566Z,88.67
2023-02-11T09:04:50.541Z,88.24
2023-02-11T09:05:50.692Z,88.24
2023-02-11T09:06:50.510Z,88.13
2023-02-11T09:07:50.528Z,87.33
2023-02-11T09:08:50.532Z,87.65
2023-02-11T09:09:50.526Z,87.79
2023-02-11T09:10:50.823Z,87.90
2023-02-11T09:11:50.825Z,88.11
2023-02-11T09:12:50.462Z,88.43
2023-02-11T09:13:53.276Z,88.43
2023-02-11T09:14:50.442Z,88.36
2023-02-11T09:15:50.419Z,88.57
2023-02-11T09:16:50.534Z,89.00
2023-02-11T09:17:50.394Z,89.31
2023-02-11T09:18:50.390Z,89.21
2023-02-11T09:19:50.399Z,89.21
2023-02-11T09:20:50.768Z,89.36
2023-02-11T09:21:50.346Z,89.36
2023-02-11T09:22:50.360Z,89.89
2023-02-11T09:23:50.585Z,90.10
2023-02-11T09:24:50.348Z,90.31
2023-02-11T09:25:50.591Z,90.10
2023-02-11T09:26:50.313Z,90.31
2023-02-11T09:27:50.286Z,90.20
2023-02-11T09:28:50.314Z,90.10
2023-02-11T09:29:50.300Z,90.06
2023-02-11T09:30:50.766Z,89.95
2023-02-11T09:31:50.684Z,89.84
2023-02-11T09:32:50.248Z,89.64
2023-02-11T09:33:50.263Z,89.31
2023-02-11T09:34:50.219Z,89.53
2023-02-11T09:35:50.211Z,89.31
2023-02-11T09:36:50.208Z,89.31
2023-02-11T09:37:50.207Z,89.53
2023-02-11T09:38:50.168Z,89.31
2023-02-11T09:39:50.183Z,89.11
2023-02-11T09:40:50.534Z,89.00
2023-02-11T09:41:50.144Z,89.21
2023-02-11T09:42:50.125Z,89.42
2023-02-11T09:43:50.135Z,89.00
2023-02-11T09:44:50.127Z,88.89
2023-02-11T09:45:51.092Z,88.57
2023-02-11T09:46:50.088Z,88.79
2023-02-11T09:47:50.085Z,88.85
2023-02-11T09:48:50.082Z,88.64
2023-02-11T09:49:50.092Z,88.32
2023-02-11T09:50:50.372Z,88.43
2023-02-11T09:51:50.899Z,88.64
2023-02-11T09:52:50.028Z,88.21
2023-02-11T09:53:50.032Z,88.32
2023-02-11T09:54:49.993Z,88.21
2023-02-11T09:55:50.028Z,88.18
2023-02-11T09:56:49.993Z,88.18
2023-02-11T09:57:49.982Z,88.07
2023-02-11T09:58:49.971Z,87.65
2023-02-11T09:59:49.952Z,87.33
2023-02-11T10:00:50.392Z,87.33
2023-02-11T10:01:49.961Z,87.23
2023-02-11T10:02:49.939Z,87.43
2023-02-11T10:03:49.925Z,87.12
2023-02-11T10:04:49.899Z,86.98
2023-02-11T10:05:49.877Z,87.18
2023-02-11T10:06:49.893Z,87.18
2023-02-11T10:07:49.866Z,87.18
2023-02-11T10:08:49.890Z,87.18
2023-02-11T10:09:49.840Z,87.40
2023-02-11T10:10:50.216Z,87.61
2023-02-11T10:11:49.829Z,87.50
2023-02-11T10:12:49.810Z,87.50
2023-02-11T10:13:49.825Z,87.50
2023-02-11T10:14:49.800Z,87.61
2023-02-11T10:15:49.843Z,87.57
2023-02-11T10:16:49.897Z,87.36
2023-02-11T10:17:49.787Z,87.25
2023-02-11T10:18:49.774Z,87.25
2023-02-11T10:19:49.773Z,87.36
2023-02-11T10:20:50.193Z,87.57
2023-02-11T10:21:49.775Z,87.25
2023-02-11T10:22:49.725Z,87.15
2023-02-11T10:23:49.703Z,86.93
2023-02-11T10:24:49.731Z,86.68
2023-02-11T10:25:49.712Z,86.58
2023-02-11T10:26:49.695Z,86.47
2023-02-11T10:27:49.665Z,86.47
2023-02-11T10:28:49.651Z,86.47
2023-02-11T10:29:49.638Z,86.47
2023-02-11T10:30:50.153Z,86.36
2023-02-11T10:31:49.687Z,86.26
2023-02-11T10:32:49.607Z,86.26
2023-02-11T10:33:49.605Z,86.26
2023-02-11T10:34:49.593Z,86.05
2023-02-11T10:35:49.561Z,85.91
2023-02-11T10:36:49.579Z,85.91
2023-02-11T10:37:49.549Z,86.01
2023-02-11T10:38:49.572Z,85.80
2023-02-11T10:39:49.537Z,85.59
2023-02-11T10:40:49.894Z,85.27
2023-02-11T10:41:49.509Z,85.16
2023-02-11T10:42:49.558Z,85.13
2023-02-11T10:43:49.507Z,85.13
2023-02-11T10:44:49.470Z,84.81
2023-02-11T10:45:49.468Z,84.70
2023-02-11T10:46:49.516Z,84.60
2023-02-11T10:47:49.444Z,84.60
2023-02-11T10:48:49.475Z,84.60
2023-02-11T10:49:49.424Z,84.70
2023-02-11T10:50:49.701Z,84.77
2023-02-11T10:51:49.393Z,84.45
2023-02-11T10:52:49.376Z,84.45
2023-02-11T10:53:49.387Z,84.14
2023-02-11T10:54:49.357Z,84.03
2023-02-11T10:55:49.351Z,84.14
2023-02-11T10:56:49.370Z,84.35
2023-02-11T10:57:49.354Z,84.56
2023-02-11T10:58:49.340Z,84.56
2023-02-11T10:59:49.326Z,84.14
2023-02-11T11:00:49.717Z,83.61
2023-02-11T11:01:49.366Z,83.82
2023-02-11T11:02:50.065Z,83.72
2023-02-11T11:03:49.260Z,83.82
2023-02-11T11:04:49.401Z,83.50
2023-02-11T11:05:49.278Z,83.72
2023-02-11T11:06:49.227Z,84.03
2023-02-11T11:07:49.949Z,83.68
2023-02-11T11:08:49.236Z,83.57
2023-02-11T11:09:49.251Z,83.26
2023-02-11T11:10:49.564Z,83.15
2023-02-11T11:11:49.177Z,83.26
2023-02-11T11:12:49.234Z,83.26
2023-02-11T11:13:49.219Z,83.04
2023-02-11T11:14:49.154Z,82.94
2023-02-11T11:15:49.314Z,83.26
2023-02-11T11:16:49.163Z,83.26
2023-02-11T11:17:49.122Z,83.15
2023-02-11T11:18:49.102Z,83.26
2023-02-11T11:19:49.222Z,83.15
2023-02-11T11:20:49.578Z,83.36
2023-02-11T11:21:49.165Z,83.26
2023-02-11T11:22:49.124Z,83.04
2023-02-11T11:23:49.066Z,83.04
2023-02-11T11:24:49.056Z,83.11
2023-02-11T11:25:49.091Z,82.90
2023-02-11T11:26:49.021Z,82.90
2023-02-11T11:27:49.132Z,83.01
2023-02-11T11:28:49.061Z,82.79
2023-02-11T11:29:48.994Z,82.69
2023-02-11T11:30:49.409Z,82.79
2023-02-11T11:31:49.094Z,82.79
2023-02-11T11:32:48.957Z,82.69
2023-02-11T11:33:48.965Z,82.48
2023-02-11T11:34:48.978Z,82.37
2023-02-11T11:35:48.929Z,82.27
2023-02-11T11:36:48.913Z,82.48
2023-02-11T11:37:48.912Z,82.90
2023-02-11T11:38:48.926Z,82.17
2023-02-11T11:39:48.879Z,82.02
2023-02-11T11:40:49.201Z,82.17
2023-02-11T11:41:48.859Z,82.02
2023-02-11T11:42:48.860Z,81.92
2023-02-11T11:43:48.863Z,81.81
2023-02-11T11:44:48.857Z,81.60
2023-02-11T11:45:48.829Z,81.70
2023-02-11T11:46:48.825Z,81.49
2023-02-11T11:47:48.816Z,81.28
2023-02-11T11:48:48.770Z,81.28
2023-02-11T11:49:48.854Z,81.18
2023-02-11T11:50:49.094Z,81.28
2023-02-11T11:51:48.829Z,81.18
2023-02-11T11:52:48.729Z,80.86
2023-02-11T11:53:48.731Z,80.76
2023-02-11T11:54:48.760Z,81.28
2023-02-11T11:55:49.644Z,81.28
2023-02-11T11:56:48.692Z,81.39
2023-02-11T11:57:48.812Z,81.04
2023-02-11T11:58:49.457Z,80.19
2023-02-11T11:59:48.677Z,79.84
2023-02-11T12:00:48.972Z,79.42
2023-02-11T12:01:48.641Z,78.75
2023-02-11T12:02:48.665Z,78.75
2023-02-11T12:03:48.981Z,78.86
2023-02-11T12:04:48.619Z,78.50
2023-02-11T12:05:48.822Z,78.19
2023-02-11T12:06:48.893Z,77.98
2023-02-11T12:07:48.892Z,77.84
2023-02-11T12:08:48.902Z,77.52
2023-02-11T12:09:48.559Z,76.86
2023-02-11T12:10:48.931Z,76.23
2023-02-11T12:11:48.547Z,76.12
2023-02-11T12:12:48.529Z,75.81
2023-02-11T12:13:48.542Z,76.26
2023-02-11T12:14:48.550Z,76.26
2023-02-11T12:15:48.490Z,76.47
2023-02-11T12:16:48.557Z,77.24
2023-02-11T12:17:48.466Z,77.66
2023-02-11T12:18:48.487Z,78.19
2023-02-11T12:19:48.446Z,78.40
2023-02-11T12:20:48.892Z,78.64
2023-02-11T12:21:48.512Z,78.96
2023-02-11T12:22:48.416Z,78.75
2023-02-11T12:23:48.405Z,78.75
2023-02-11T12:24:48.497Z,78.75
2023-02-11T12:25:48.375Z,78.75
2023-02-11T12:26:48.400Z,78.96
2023-02-11T12:27:48.973Z,78.82
2023-02-11T12:28:49.972Z,78.92
2023-02-11T12:29:48.477Z,78.72
2023-02-11T12:30:48.848Z,78.61
2023-02-11T12:31:48.735Z,78.72
2023-02-11T12:32:48.379Z,78.61
2023-02-11T12:33:48.356Z,78.50
2023-02-11T12:34:48.345Z,78.61
2023-02-11T12:35:48.426Z,78.72
2023-02-11T12:36:49.269Z,78.82
2023-02-11T12:37:48.247Z,78.82
2023-02-11T12:38:48.233Z,78.72
2023-02-11T12:39:48.226Z,78.82
2023-02-11T12:40:48.476Z,78.50
2023-02-11T12:41:48.257Z,78.40
2023-02-11T12:42:48.190Z,78.44
2023-02-11T12:43:48.171Z,78.72
2023-02-11T12:44:48.176Z,78.50
2023-02-11T12:45:48.225Z,78.72
2023-02-11T12:46:48.148Z,78.50
2023-02-11T12:47:48.164Z,78.30
2023-02-11T12:48:48.127Z,78.19
2023-02-11T12:49:48.140Z,78.19
2023-02-11T12:50:48.180Z,77.84
2023-02-11T12:51:48.158Z,78.05
2023-02-11T12:52:48.205Z,77.84
2023-02-11T12:53:48.076Z,77.52